createdAt,value
2023-03-02T00:01:08.355Z,18.40
2023-03-02T00:03:40.665Z,19.10
2023-03-02T00:06:09.083Z,19.20
2023-03-02T00:08:37.276Z,21.60
2023-03-02T00:11:04.260Z,19.02
2023-03-02T00:13:33.160Z,20.08
2023-03-02T00:16:00.033Z,19.30
2023-03-02T00:18:26.762Z,18.10
2023-03-02T00:20:53.447Z,19.92
2023-03-02T00:23:20.344Z,18.55
2023-03-02T00:25:47.123Z,19.02
2023-03-02T00:28:13.890Z,21.08
2023-03-02T00:30:40.869Z,19.05
2023-03-02T00:33:07.825Z,20.17
2023-03-02T00:35:39.403Z,20.73
2023-03-02T00:38:07.181Z,19.80
2023-03-02T00:40:35.479Z,21.00
2023-03-02T00:43:02.178Z,21.25
2023-03-02T00:45:28.968Z,21.15
2023-03-02T00:47:55.784Z,22.38
2023-03-02T00:50:22.564Z,21.65
2023-03-02T00:52:49.565Z,21.27
2023-03-02T00:55:16.358Z,23.77
2023-03-02T00:57:43.202Z,24.20
2023-03-02T01:00:11.169Z,22.90
2023-03-02T01:02:43.921Z,23.40
2023-03-02T01:05:10.878Z,21.15
2023-03-02T01:07:37.630Z,22.48
2023-03-02T01:10:05.537Z,23.15
2023-03-02T01:12:33.103Z,22.58
2023-03-02T01:15:00.439Z,23.95
2023-03-02T01:17:27.790Z,22.42
2023-03-02T01:19:54.866Z,22.63
2023-03-02T01:22:23.123Z,22.83
2023-03-02T01:24:50.058Z,23.42
2023-03-02T01:27:16.799Z,23.10
2023-03-02T01:29:43.590Z,23.65
2023-03-02T01:32:10.421Z,23.77
2023-03-02T01:34:37.307Z,24.35
2023-03-02T01:37:04.474Z,25.65
2023-03-02T01:39:31.243Z,23.25
2023-03-02T01:41:58.022Z,21.83
2023-03-02T01:44:46.632Z,24.17
2023-03-02T01:47:23.115Z,25.08
2023-03-02T01:50:01.276Z,23.58
2023-03-02T01:52:31.451Z,23.00
2023-03-02T01:55:01.854Z,22.95
2023-03-02T01:57:32.658Z,22.50
2023-03-02T02:00:10.347Z,21.45
2023-03-02T02:02:37.134Z,19.98
2023-03-02T02:05:04.499Z,21.98
2023-03-02T02:07:31.584Z,24.27
2023-03-02T02:09:58.815Z,22.98
2023-03-02T02:12:25.558Z,24.15
2023-03-02T02:14:52.334Z,22.42
2023-03-02T02:17:19.854Z,24.00
2023-03-02T02:20:20.830Z,23.10
2023-03-02T02:23:01.906Z,26.27
2023-03-02T02:25:39.819Z,25.40
2023-03-02T02:28:12.361Z,24.63
2023-03-02T02:30:40.582Z,22.75
2023-03-02T02:33:09.720Z,23.02
2023-03-02T02:35:38.624Z,23.63
2023-03-02T02:38:07.997Z,24.10
2023-03-02T02:40:52.713Z,22.95
2023-03-02T02:43:21.316Z,21.23
2023-03-02T02:45:51.982Z,24.98
2023-03-02T02:48:23.140Z,23.48
2023-03-02T02:50:53.233Z,24.08
2023-03-02T02:53:24.629Z,25.17
2023-03-02T02:55:54.986Z,23.90
2023-03-02T02:58:30.707Z,27.08
2023-03-02T03:00:57.773Z,27.02
2023-03-02T03:03:34.551Z,26.65
2023-03-02T03:06:04.816Z,25.33
2023-03-02T03:08:46.536Z,24.95
2023-03-02T03:11:19.312Z,25.48
2023-03-02T03:13:46.937Z,23.65
2023-03-02T03:16:16.137Z,23.85
2023-03-02T03:18:45.198Z,25.85
2023-03-02T03:21:11.943Z,23.90
2023-03-02T03:23:38.685Z,24.83
2023-03-02T03:26:06.102Z,26.23
2023-03-02T03:28:33.468Z,24.75
2023-03-02T03:31:00.258Z,25.35
2023-03-02T03:33:26.989Z,25.35
2023-03-02T03:35:53.703Z,27.20
2023-03-02T03:38:20.621Z,27.67
2023-03-02T03:40:47.384Z,24.83
2023-03-02T03:43:15.132Z,25.55
2023-03-02T03:45:41.836Z,25.08
2023-03-02T03:48:08.528Z,23.98
2023-03-02T03:50:36.771Z,24.75
2023-03-02T03:53:04.073Z,23.85
2023-03-02T03:55:31.324Z,24.58
2023-03-02T03:57:58.192Z,24.83
2023-03-02T04:00:24.974Z,25.65
2023-03-02T04:02:51.700Z,26.95
2023-03-02T04:05:18.497Z,24.27
2023-03-02T04:07:45.468Z,24.50
2023-03-02T04:10:12.476Z,25.80
2023-03-02T04:12:40.779Z,25.80
2023-03-02T04:15:09.162Z,25.77
2023-03-02T04:17:35.848Z,25.17
2023-03-02T04:20:02.640Z,24.05
2023-03-02T04:22:29.279Z,25.10
2023-03-02T04:24:55.994Z,25.63
2023-03-02T04:27:22.684Z,25.55
2023-03-02T04:29:49.425Z,24.48
2023-03-02T04:32:16.120Z,22.58
2023-03-02T04:34:42.803Z,26.25
2023-03-02T04:37:09.493Z,27.05
2023-03-02T04:39:36.300Z,24.15
2023-03-02T04:42:03.049Z,24.77
2023-03-02T04:44:29.798Z,23.92
2023-03-02T04:46:56.602Z,25.38
2023-03-02T04:49:23.536Z,21.70
2023-03-02T04:51:50.836Z,23.10
2023-03-02T04:54:23.555Z,25.77
2023-03-02T04:56:51.565Z,32.40
2023-03-02T04:59:25.925Z,29.45
2023-03-02T05:01:55.054Z,28.98
2023-03-02T05:04:22.380Z,28.15
2023-03-02T05:06:49.623Z,28.95
2023-03-02T05:09:16.745Z,25.70
2023-03-02T05:11:43.515Z,27.33
2023-03-02T05:14:12.540Z,28.00
2023-03-02T05:16:41.694Z,28.05
2023-03-02T05:19:10.594Z,27.00
2023-03-02T05:21:37.301Z,29.23
2023-03-02T05:24:04.125Z,28.50
2023-03-02T05:26:31.497Z,27.00
2023-03-02T05:28:58.416Z,26.30
2023-03-02T05:31:32.021Z,26.70
2023-03-02T05:33:58.748Z,27.45
2023-03-02T05:36:25.440Z,27.40
2023-03-02T05:38:52.264Z,26.10
2023-03-02T05:41:19.302Z,29.05
2023-03-02T05:43:45.963Z,34.08
2023-03-02T05:46:12.681Z,29.05
2023-03-02T05:48:39.633Z,29.60
2023-03-02T05:51:06.304Z,27.80
2023-03-02T05:53:32.983Z,27.30
2023-03-02T05:55:59.897Z,26.80
2023-03-02T05:58:26.589Z,27.42
2023-03-02T06:00:53.310Z,27.52
2023-03-02T06:03:20.116Z,27.67
2023-03-02T06:05:52.254Z,26.63
2023-03-02T06:08:21.497Z,27.00
2023-03-02T06:10:50.632Z,27.23
2023-03-02T06:13:17.376Z,26.92
2023-03-02T06:15:44.312Z,28.98
2023-03-02T06:18:12.528Z,36.05
2023-03-02T06:20:44.533Z,29.48
2023-03-02T06:23:12.006Z,26.90
2023-03-02T06:25:41.348Z,26.17
2023-03-02T06:28:08.020Z,28.23
2023-03-02T06:30:34.704Z,27.45
2023-03-02T06:33:01.687Z,28.63
2023-03-02T06:35:29.177Z,25.05
2023-03-02T06:37:56.064Z,27.45
2023-03-02T06:40:22.811Z,94.20
2023-03-02T06:42:49.893Z,58.03
2023-03-02T06:45:16.714Z,78.65
2023-03-02T06:47:43.372Z,71.22
2023-03-02T06:50:10.911Z,65.05
2023-03-02T06:52:37.639Z,28.35
2023-03-02T06:55:04.795Z,23.50
2023-03-02T06:57:34.233Z,23.45
2023-03-02T07:00:06.748Z,24.20
2023-03-02T07:02:33.731Z,23.63
2023-03-02T07:05:00.496Z,23.48
2023-03-02T07:07:27.478Z,22.77
2023-03-02T07:09:54.208Z,23.90
2023-03-02T07:12:20.857Z,23.52
2023-03-02T07:14:47.485Z,22.70
2023-03-02T07:17:14.138Z,23.45
2023-03-02T07:19:41.099Z,24.08
2023-03-02T07:22:07.782Z,24.27
2023-03-02T07:24:34.691Z,22.15
2023-03-02T07:27:01.533Z,22.90
2023-03-02T07:29:28.283Z,22.90
2023-03-02T07:32:01.067Z,23.73
2023-03-02T07:34:28.945Z,21.67
2023-03-02T07:36:55.799Z,21.40
2023-03-02T07:39:22.473Z,21.13
2023-03-02T07:41:49.419Z,21.38
2023-03-02T07:44:16.145Z,19.80
2023-03-02T07:46:43.013Z,21.13
2023-03-02T07:49:09.848Z,20.10
2023-03-02T07:51:36.529Z,18.67
2023-03-02T07:54:04.873Z,19.15
2023-03-02T07:56:31.654Z,20.27
2023-03-02T07:58:58.569Z,20.58
2023-03-02T08:01:25.397Z,20.73
2023-03-02T08:03:52.179Z,19.25
2023-03-02T08:06:19.127Z,19.08
2023-03-02T08:08:46.150Z,17.42
2023-03-02T08:11:16.238Z,20.70
2023-03-02T08:13:43.092Z,19.98
2023-03-02T08:16:12.183Z,19.58
2023-03-02T08:18:39.469Z,18.90
2023-03-02T08:21:18.053Z,17.80
2023-03-02T08:23:45.043Z,19.27
2023-03-02T08:26:14.792Z,19.40
2023-03-02T08:28:43.380Z,18.67
2023-03-02T08:31:10.663Z,18.77
2023-03-02T08:33:37.575Z,18.13
2023-03-02T08:36:13.478Z,18.17
2023-03-02T08:38:40.400Z,18.13
2023-03-02T08:41:10.592Z,18.83
2023-03-02T08:43:37.496Z,18.70
2023-03-02T08:46:04.653Z,19.23
2023-03-02T08:48:31.966Z,17.53
2023-03-02T08:51:14.206Z,18.80
2023-03-02T08:53:46.767Z,19.17
2023-03-02T08:56:22.571Z,17.30
2023-03-02T08:58:50.641Z,19.50
2023-03-02T09:01:20.103Z,17.87
2023-03-02T09:03:46.812Z,17.63
2023-03-02T09:06:13.776Z,17.27
2023-03-02T09:08:40.769Z,16.77
2023-03-02T09:11:08.098Z,17.90
2023-03-02T09:13:34.871Z,18.40
2023-03-02T09:16:01.857Z,15.77
2023-03-02T09:18:29.651Z,16.83
2023-03-02T09:20:56.857Z,20.03
2023-03-02T09:23:24.305Z,17.50
2023-03-02T09:25:51.264Z,15.60
2023-03-02T09:28:18.781Z,17.37
2023-03-02T09:30:53.846Z,15.57
2023-03-02T09:33:21.239Z,14.93
2023-03-02T09:35:48.171Z,15.00
2023-03-02T09:38:18.442Z,15.57
2023-03-02T09:40:58.687Z,15.47
2023-03-02T09:43:53.037Z,15.00
2023-03-02T09:46:47.846Z,14.83
2023-03-02T09:49:33.295Z,15.83
2023-03-02T09:52:29.062Z,13.50
2023-03-02T09:54:57.710Z,13.97
2023-03-02T09:57:31.833Z,14.47
2023-03-02T10:00:19.579Z,15.83
2023-03-02T10:02:50.261Z,14.23
2023-03-02T10:05:33.478Z,15.20
2023-03-02T10:08:00.833Z,13.83
2023-03-02T10:10:42.857Z,14.07
2023-03-02T10:13:21.441Z,14.37
2023-03-02T10:16:26.623Z,13.43
2023-03-02T10:19:24.956Z,14.37
2023-03-02T10:22:09.226Z,12.83
2023-03-02T10:25:11.482Z,19.57
2023-03-02T10:27:53.859Z,12.57
2023-03-02T10:30:28.412Z,12.67
2023-03-02T10:32:59.499Z,12.13
2023-03-02T10:35:28.858Z,14.37
2023-03-02T10:38:01.874Z,16.37
2023-03-02T10:40:34.459Z,14.67
2023-03-02T10:43:01.812Z,14.03
2023-03-02T10:45:31.628Z,11.90
2023-03-02T10:48:01.509Z,13.03
2023-03-02T10:50:30.557Z,13.23
2023-03-02T10:53:00.750Z,12.60
2023-03-02T10:55:28.945Z,13.30
2023-03-02T10:58:20.064Z,11.77
2023-03-02T11:01:16.378Z,13.40
2023-03-02T11:03:43.306Z,15.97
2023-03-02T11:06:22.505Z,13.63
2023-03-02T11:09:06.885Z,11.10
2023-03-02T11:11:35.535Z,11.90
2023-03-02T11:14:14.367Z,11.60
2023-03-02T11:16:41.135Z,12.10
2023-03-02T11:19:13.789Z,11.73
2023-03-02T11:22:07.843Z,13.13
2023-03-02T11:24:41.048Z,14.70
2023-03-02T11:27:20.189Z,11.77
2023-03-02T11:29:59.437Z,11.87
2023-03-02T11:33:01.437Z,12.60
2023-03-02T11:35:43.409Z,12.63
2023-03-02T11:38:22.054Z,13.37
2023-03-02T11:40:56.556Z,12.90
2023-03-02T11:43:23.321Z,15.73
2023-03-02T11:46:10.843Z,14.17
2023-03-02T11:48:43.250Z,13.40
2023-03-02T11:51:24.541Z,12.70
2023-03-02T11:54:04.611Z,12.47
2023-03-02T11:56:35.237Z,12.90
2023-03-02T11:59:21.023Z,11.70
2023-03-02T12:01:52.874Z,14.77
2023-03-02T12:04:35.963Z,11.33
2023-03-02T12:07:16.649Z,13.17
2023-03-02T12:09:43.582Z,13.87
2023-03-02T12:12:19.414Z,14.07
2023-03-02T12:14:46.419Z,12.87
2023-03-02T12:17:32.227Z,13.10
2023-03-02T12:20:08.075Z,12.10
2023-03-02T12:22:36.000Z,12.20
2023-03-02T12:25:21.265Z,13.60
2023-03-02T12:27:51.478Z,12.63
2023-03-02T12:30:25.000Z,14.00
2023-03-02T12:33:15.348Z,12.67
2023-03-02T12:35:42.483Z,11.27
2023-03-02T12:38:32.468Z,11.83
2023-03-02T12:41:13.512Z,13.37
2023-03-02T12:44:07.787Z,11.77
2023-03-02T12:46:37.403Z,11.97
2023-03-02T12:49:27.320Z,13.57
2023-03-02T12:51:58.605Z,12.43
2023-03-02T12:54:31.510Z,11.80
2023-03-02T12:57:08.907Z,15.00
2023-03-02T12:59:36.808Z,12.30
2023-03-02T13:02:25.027Z,14.07
2023-03-02T13:05:04.411Z,12.10
2023-03-02T13:07:44.083Z,12.10
2023-03-02T13:10:28.373Z,13.03
2023-03-02T13:12:55.139Z,12.63
2023-03-02T13:15:21.828Z,13.93
2023-03-02T13:17:57.062Z,13.20
2023-03-02T13:20:27.862Z,13.03
2023-03-02T13:22:55.265Z,15.37
2023-03-02T13:25:28.897Z,16.00
2023-03-02T13:28:00.575Z,12.67
2023-03-02T13:30:31.050Z,15.27
2023-03-02T13:33:02.710Z,12.10
2023-03-02T13:35:35.832Z,12.73
2023-03-02T13:38:16.038Z,15.70
2023-03-02T13:40:48.486Z,13.87
2023-03-02T13:43:30.727Z,20.03
2023-03-02T13:46:00.163Z,14.70
2023-03-02T13:48:30.244Z,12.73
2023-03-02T13:51:00.620Z,16.83
2023-03-02T13:53:30.193Z,13.83
2023-03-02T13:56:00.203Z,13.13
2023-03-02T13:58:29.338Z,17.27
2023-03-02T14:00:56.395Z,13.03
2023-03-02T14:03:29.766Z,13.57
2023-03-02T14:05:58.224Z,13.03
2023-03-02T14:08:25.266Z,12.40
2023-03-02T14:10:55.153Z,12.50
2023-03-02T14:13:30.479Z,12.27
2023-03-02T14:15:57.494Z,12.20
2023-03-02T14:18:26.625Z,12.37
2023-03-02T14:20:53.468Z,11.57
2023-03-02T14:23:20.180Z,12.03
2023-03-02T14:25:47.048Z,13.20
2023-03-02T14:28:36.283Z,14.30
2023-03-02T14:31:03.092Z,12.10
2023-03-02T14:33:29.804Z,11.70
2023-03-02T14:35:58.039Z,11.97
2023-03-02T14:38:27.006Z,15.77
2023-03-02T14:40:54.058Z,18.23
2023-03-02T14:43:21.363Z,13.97
2023-03-02T14:45:48.088Z,11.30
2023-03-02T14:48:14.806Z,12.90
2023-03-02T14:50:45.664Z,11.80
2023-03-02T14:53:27.970Z,11.80
2023-03-02T14:55:54.874Z,12.17
2023-03-02T14:58:31.350Z,12.57
2023-03-02T15:00:58.414Z,13.63
2023-03-02T15:03:29.242Z,13.80
2023-03-02T15:06:01.362Z,12.50
2023-03-02T15:08:29.921Z,15.87
2023-03-02T15:10:56.652Z,11.20
2023-03-02T15:13:23.352Z,12.43
2023-03-02T15:15:50.212Z,12.83
2023-03-02T15:18:19.577Z,11.77
2023-03-02T15:20:46.628Z,9.93
2023-03-02T15:23:13.474Z,12.00
2023-03-02T15:25:40.679Z,13.00
2023-03-02T15:28:07.334Z,13.33
2023-03-02T15:30:33.998Z,13.07
2023-03-02T15:33:00.725Z,13.33
2023-03-02T15:35:29.104Z,11.50
2023-03-02T15:37:58.199Z,14.90
2023-03-02T15:40:25.446Z,13.53
2023-03-02T15:42:53.121Z,12.87
2023-03-02T15:45:20.077Z,15.97
2023-03-02T15:47:47.052Z,18.90
2023-03-02T15:50:13.801Z,21.60
2023-03-02T15:52:41.539Z,21.20
2023-03-02T15:55:08.971Z,20.17
2023-03-02T15:57:39.382Z,22.47
2023-03-02T16:00:07.135Z,21.53
2023-03-02T16:02:34.249Z,22.00
2023-03-02T16:05:01.028Z,22.70
2023-03-02T16:07:27.875Z,22.17
2023-03-02T16:09:54.574Z,23.87
2023-03-02T16:12:23.336Z,22.10
2023-03-02T16:14:50.347Z,23.50
2023-03-02T16:17:20.549Z,24.03
2023-03-02T16:19:47.333Z,21.90
2023-03-02T16:22:14.468Z,29.53
2023-03-02T16:24:41.985Z,24.33
2023-03-02T16:27:08.948Z,25.43
2023-03-02T16:29:35.801Z,22.33
2023-03-02T16:32:02.716Z,24.90
2023-03-02T16:34:29.540Z,22.70
2023-03-02T16:36:56.222Z,24.53
2023-03-02T16:39:23.078Z,23.20
2023-03-02T16:41:51.297Z,23.47
2023-03-02T16:44:18.711Z,22.77
2023-03-02T16:46:45.824Z,28.80
2023-03-02T16:49:13.803Z,27.40
2023-03-02T16:51:41.157Z,24.80
2023-03-02T16:54:07.855Z,28.73
2023-03-02T16:56:34.598Z,25.90
2023-03-02T16:59:01.322Z,27.27
2023-03-02T17:01:28.299Z,26.57
2023-03-02T17:03:56.210Z,32.20
2023-03-02T17:06:24.010Z,31.83
2023-03-02T17:08:51.280Z,29.60
2023-03-02T17:11:19.181Z,27.47
2023-03-02T17:13:46.166Z,27.40
2023-03-02T17:16:13.437Z,27.70
2023-03-02T17:18:41.096Z,31.00
2023-03-02T17:21:08.423Z,32.40
2023-03-02T17:23:36.774Z,45.20
2023-03-02T17:26:03.723Z,69.43
2023-03-02T17:28:30.765Z,55.43
2023-03-02T17:30:57.544Z,39.37
2023-03-02T17:33:24.357Z,70.43
2023-03-02T17:35:52.054Z,30.33
2023-03-02T17:38:19.021Z,30.30
2023-03-02T17:40:45.873Z,29.38
2023-03-02T17:43:12.755Z,33.47
2023-03-02T17:45:39.879Z,32.47
2023-03-02T17:48:06.890Z,31.30
2023-03-02T17:50:33.786Z,30.15
2023-03-02T17:53:00.493Z,30.60
2023-03-02T17:55:27.249Z,31.50
2023-03-02T17:57:54.155Z,31.35
2023-03-02T18:00:23.189Z,28.80
2023-03-02T18:02:50.052Z,33.55
2023-03-02T18:05:17.000Z,30.85
2023-03-02T18:07:43.884Z,29.33
2023-03-02T18:10:11.730Z,32.95
2023-03-02T18:12:38.442Z,31.67
2023-03-02T18:15:05.890Z,29.20
2023-03-02T18:17:32.714Z,31.02
2023-03-02T18:19:59.670Z,31.98
2023-03-02T18:22:26.379Z,32.00
2023-03-02T18:24:53.142Z,34.70
2023-03-02T18:27:20.230Z,31.13
2023-03-02T18:29:46.949Z,31.58
2023-03-02T18:32:14.116Z,38.15
2023-03-02T18:34:40.966Z,38.80
2023-03-02T18:37:07.811Z,32.45
2023-03-02T18:39:34.967Z,35.15
2023-03-02T18:42:01.649Z,33.10
2023-03-02T18:44:28.438Z,33.47
2023-03-02T18:46:56.041Z,35.08
2023-03-02T18:49:23.521Z,36.55
2023-03-02T18:51:50.661Z,37.78
2023-03-02T18:54:17.414Z,32.70
2023-03-02T18:56:44.605Z,37.47
2023-03-02T18:59:12.126Z,30.40
2023-03-02T19:01:38.987Z,30.98
2023-03-02T19:04:06.305Z,34.17
2023-03-02T19:06:33.735Z,36.78
2023-03-02T19:09:00.622Z,30.83
2023-03-02T19:11:27.386Z,32.08
2023-03-02T19:13:54.151Z,36.17
2023-03-02T19:16:20.995Z,33.45
2023-03-02T19:18:48.627Z,32.05
2023-03-02T19:21:16.170Z,33.67
2023-03-02T19:23:43.783Z,32.35
2023-03-02T19:26:11.570Z,35.33
2023-03-02T19:28:39.857Z,30.80
2023-03-02T19:31:09.272Z,34.35
2023-03-02T19:33:37.217Z,40.65
2023-03-02T19:36:04.840Z,33.03
2023-03-02T19:38:31.544Z,32.28
2023-03-02T19:41:00.118Z,32.05
2023-03-02T19:43:27.751Z,32.75
2023-03-02T19:45:54.590Z,31.83
2023-03-02T19:48:21.529Z,31.45
2023-03-02T19:50:48.503Z,34.58
2023-03-02T19:53:17.049Z,34.85
2023-03-02T19:55:44.402Z,34.80
2023-03-02T19:58:17.151Z,33.83
2023-03-02T20:00:45.446Z,32.20
2023-03-02T20:03:13.064Z,31.63
2023-03-02T20:05:39.955Z,35.30
2023-03-02T20:08:07.441Z,36.00
2023-03-02T20:10:46.515Z,33.65
2023-03-02T20:13:13.199Z,38.47
2023-03-02T20:15:42.659Z,32.97
2023-03-02T20:18:15.711Z,33.22
2023-03-02T20:20:45.168Z,32.65
2023-03-02T20:23:12.450Z,34.45
2023-03-02T20:25:39.592Z,32.05
2023-03-02T20:28:11.768Z,34.50
2023-03-02T20:30:44.077Z,31.88
2023-03-02T20:33:12.359Z,30.25
2023-03-02T20:35:42.515Z,29.88
2023-03-02T20:38:14.370Z,34.03
2023-03-02T20:40:41.207Z,36.92
2023-03-02T20:43:07.970Z,37.97
2023-03-02T20:45:35.646Z,31.85
2023-03-02T20:48:03.101Z,33.15
2023-03-02T20:50:33.018Z,30.25
2023-03-02T20:53:00.039Z,33.67
2023-03-02T20:55:27.127Z,32.38
2023-03-02T20:57:56.957Z,32.20
2023-03-02T21:00:27.378Z,31.38
2023-03-02T21:02:54.811Z,31.40
2023-03-02T21:05:21.610Z,32.92
2023-03-02T21:07:51.596Z,47.67
2023-03-02T21:10:21.817Z,45.00
2023-03-02T21:12:49.048Z,42.70
2023-03-02T21:15:16.906Z,40.15
2023-03-02T21:17:43.588Z,35.13
2023-03-02T21:20:12.174Z,38.53
2023-03-02T21:22:39.030Z,40.78
2023-03-02T21:25:08.830Z,42.53
2023-03-02T21:27:37.156Z,37.00
2023-03-02T21:30:08.709Z,36.40
2023-03-02T21:32:35.398Z,35.08
2023-03-02T21:35:02.525Z,33.83
2023-03-02T21:37:29.350Z,35.17
2023-03-02T21:39:56.132Z,32.50
2023-03-02T21:42:22.896Z,32.67
2023-03-02T21:44:49.629Z,33.28
2023-03-02T21:47:16.413Z,31.65
2023-03-02T21:49:43.205Z,39.35
2023-03-02T21:52:10.300Z,33.67
2023-03-02T21:54:37.007Z,38.60
2023-03-02T21:57:03.799Z,35.78
2023-03-02T21:59:30.824Z,33.72
2023-03-02T22:01:57.590Z,33.42
2023-03-02T22:04:24.319Z,30.42
2023-03-02T22:06:51.114Z,36.05
2023-03-02T22:09:17.781Z,35.35
2023-03-02T22:11:45.163Z,35.30
2023-03-02T22:14:17.479Z,34.35
2023-03-02T22:16:47.772Z,33.67
2023-03-02T22:19:23.625Z,37.80
2023-03-02T22:21:51.621Z,32.92
2023-03-02T22:24:28.728Z,33.75
2023-03-02T22:26:58.567Z,31.80
2023-03-02T22:29:33.641Z,34.35
2023-03-02T22:32:15.316Z,33.63
2023-03-02T22:34:44.322Z,31.33
2023-03-02T22:37:13.879Z,30.73
2023-03-02T22:39:42.277Z,32.15
2023-03-02T22:42:15.997Z,30.38
2023-03-02T22:44:44.182Z,31.25
2023-03-02T22:47:20.363Z,31.48
2023-03-02T22:49:52.951Z,28.45
2023-03-02T22:52:25.079Z,32.20
2023-03-02T22:54:51.903Z,32.45
2023-03-02T22:57:24.756Z,30.08
2023-03-02T22:59:51.439Z,31.05
2023-03-02T23:02:22.293Z,32.10
2023-03-02T23:04:50.149Z,31.65
2023-03-02T23:07:19.835Z,30.98
2023-03-02T23:09:47.436Z,31.48
2023-03-02T23:12:22.496Z,30.95
2023-03-02T23:14:49.290Z,29.52
2023-03-02T23:17:34.459Z,31.20
2023-03-02T23:20:01.999Z,34.10
2023-03-02T23:22:30.035Z,32.80
2023-03-02T23:24:57.053Z,29.85
2023-03-02T23:27:27.751Z,28.70
2023-03-02T23:29:54.422Z,30.73
2023-03-02T23:32:21.337Z,29.73
2023-03-02T23:34:48.150Z,30.40
2023-03-02T23:37:14.783Z,31.60
2023-03-02T23:39:41.446Z,29.15
2023-03-02T23:42:08.641Z,30.17
2023-03-02T23:44:35.320Z,30.45
2023-03-02T23:47:01.973Z,31.25
2023-03-02T23:49:28.829Z,29.70
2023-03-02T23:51:55.588Z,29.23
2023-03-02T23:54:22.257Z,30.67
2023-03-02T23:56:48.947Z,31.20
2023-03-02T23:59:15.667Z,28.70
